createdAt,value
2022-12-06T00:01:19.649Z,21.43
2022-12-06T00:03:51.242Z,23.40
2022-12-06T00:06:20.823Z,24.03
2022-12-06T00:08:48.592Z,21.90
2022-12-06T00:11:18.745Z,21.93
2022-12-06T00:13:46.988Z,23.47
2022-12-06T00:16:16.888Z,22.07
2022-12-06T00:18:45.501Z,19.63
2022-12-06T00:21:22.107Z,16.50
2022-12-06T00:24:17.079Z,18.20
2022-12-06T00:26:46.270Z,15.60
2022-12-06T00:29:19.958Z,16.20
2022-12-06T00:31:47.607Z,17.73
2022-12-06T00:34:15.080Z,16.23
2022-12-06T00:36:43.071Z,16.70
2022-12-06T00:39:13.833Z,17.47
2022-12-06T00:41:42.144Z,16.33
2022-12-06T00:44:10.125Z,17.73
2022-12-06T00:46:38.039Z,18.07
2022-12-06T00:49:06.906Z,16.93
2022-12-06T00:51:35.747Z,16.67
2022-12-06T00:54:03.272Z,18.27
2022-12-06T00:56:30.615Z,19.07
2022-12-06T00:58:57.764Z,19.57
2022-12-06T01:01:31.155Z,22.47
2022-12-06T01:04:00.443Z,22.63
2022-12-06T01:06:30.550Z,20.27
2022-12-06T01:09:00.003Z,19.80
2022-12-06T01:11:28.452Z,16.47
2022-12-06T01:13:56.231Z,16.43
2022-12-06T01:16:25.796Z,17.47
2022-12-06T01:18:55.288Z,17.43
2022-12-06T01:21:23.250Z,17.97
2022-12-06T01:23:51.088Z,17.23
2022-12-06T01:26:25.750Z,17.03
2022-12-06T01:28:53.168Z,17.67
2022-12-06T01:31:20.555Z,17.60
2022-12-06T01:33:47.657Z,14.57
2022-12-06T01:36:23.457Z,18.63
2022-12-06T01:38:51.867Z,18.70
2022-12-06T01:41:20.941Z,17.33
2022-12-06T01:43:48.889Z,17.73
2022-12-06T01:46:44.722Z,17.53
2022-12-06T01:49:27.012Z,19.60
2022-12-06T01:52:00.220Z,16.67
2022-12-06T01:54:28.842Z,14.10
2022-12-06T01:56:58.018Z,17.17
2022-12-06T01:59:26.325Z,16.00
2022-12-06T02:01:54.210Z,19.13
2022-12-06T02:04:22.470Z,26.37
2022-12-06T02:06:51.653Z,22.90
2022-12-06T02:09:19.823Z,23.17
2022-12-06T02:11:47.571Z,19.87
2022-12-06T02:14:19.293Z,21.27
2022-12-06T02:17:28.558Z,20.40
2022-12-06T02:20:34.506Z,26.50
2022-12-06T02:23:31.263Z,25.00
2022-12-06T02:26:27.108Z,21.83
2022-12-06T02:29:53.383Z,23.63
2022-12-06T02:32:30.034Z,30.63
2022-12-06T02:35:34.824Z,28.50
2022-12-06T02:38:18.564Z,24.23
2022-12-06T02:40:54.337Z,22.20
2022-12-06T02:43:26.789Z,26.70
2022-12-06T02:45:57.808Z,23.50
2022-12-06T02:48:26.472Z,21.30
2022-12-06T02:51:06.346Z,24.00
2022-12-06T02:53:37.108Z,24.93
2022-12-06T02:56:04.870Z,20.83
2022-12-06T02:58:37.321Z,21.73
2022-12-06T03:01:14.334Z,28.73
2022-12-06T03:04:04.116Z,31.50
2022-12-06T03:06:56.138Z,19.87
2022-12-06T03:10:00.248Z,22.33
2022-12-06T03:12:39.869Z,23.70
2022-12-06T03:15:55.542Z,25.47
2022-12-06T03:18:32.293Z,26.97
2022-12-06T03:21:12.363Z,22.63
2022-12-06T03:23:45.554Z,24.47
2022-12-06T03:26:16.767Z,24.67
2022-12-06T03:28:47.671Z,26.43
2022-12-06T03:31:15.359Z,22.93
2022-12-06T03:33:59.442Z,26.53
2022-12-06T03:36:27.923Z,22.47
2022-12-06T03:39:06.949Z,29.37
2022-12-06T03:41:44.832Z,28.47
2022-12-06T03:44:12.037Z,25.23
2022-12-06T03:46:45.132Z,21.57
2022-12-06T03:49:16.137Z,26.20
2022-12-06T03:51:44.086Z,29.20
2022-12-06T03:54:11.520Z,26.20
2022-12-06T03:56:39.364Z,23.57
2022-12-06T03:59:08.313Z,23.20
2022-12-06T04:01:35.671Z,31.93
2022-12-06T04:04:03.374Z,26.33
2022-12-06T04:06:30.632Z,22.07
2022-12-06T04:09:16.411Z,24.67
2022-12-06T04:11:43.458Z,23.50
2022-12-06T04:14:10.673Z,21.60
2022-12-06T04:16:56.360Z,24.57
2022-12-06T04:19:23.503Z,29.37
2022-12-06T04:22:08.869Z,19.83
2022-12-06T04:24:35.923Z,23.20
2022-12-06T04:27:21.635Z,29.63
2022-12-06T04:30:07.171Z,19.80
2022-12-06T04:32:52.802Z,25.40
2022-12-06T04:35:38.270Z,19.00
2022-12-06T04:38:23.788Z,17.33
2022-12-06T04:40:50.857Z,21.47
2022-12-06T04:43:36.413Z,20.33
2022-12-06T04:46:03.674Z,19.13
2022-12-06T04:48:30.696Z,24.57
2022-12-06T04:50:57.793Z,22.10
2022-12-06T04:53:24.858Z,23.10
2022-12-06T04:55:52.943Z,21.90
2022-12-06T04:58:20.021Z,22.67
2022-12-06T05:00:47.150Z,25.10
2022-12-06T05:03:15.123Z,21.00
2022-12-06T05:05:42.644Z,22.97
2022-12-06T05:08:10.202Z,20.77
2022-12-06T05:10:37.643Z,25.67
2022-12-06T05:13:05.676Z,24.50
2022-12-06T05:15:33.290Z,24.63
2022-12-06T05:18:00.362Z,23.57
2022-12-06T05:20:27.497Z,25.20
2022-12-06T05:22:54.521Z,18.80
2022-12-06T05:25:21.610Z,19.20
2022-12-06T05:27:48.792Z,20.97
2022-12-06T05:30:16.043Z,23.30
2022-12-06T05:32:43.105Z,19.33
2022-12-06T05:35:10.470Z,17.97
2022-12-06T05:37:37.553Z,21.17
2022-12-06T05:40:05.354Z,18.37
2022-12-06T05:42:32.356Z,23.27
2022-12-06T05:44:59.420Z,20.40
2022-12-06T05:47:26.494Z,21.93
2022-12-06T05:49:53.645Z,18.67
2022-12-06T05:52:20.657Z,17.60
2022-12-06T05:54:47.738Z,20.60
2022-12-06T05:57:14.774Z,19.50
2022-12-06T05:59:41.880Z,22.03
2022-12-06T06:02:08.963Z,27.27
2022-12-06T06:04:36.204Z,26.40
2022-12-06T06:07:03.243Z,21.90
2022-12-06T06:09:30.370Z,24.07
2022-12-06T06:11:57.423Z,19.60
2022-12-06T06:14:24.604Z,21.10
2022-12-06T06:16:52.318Z,15.67
2022-12-06T06:19:19.525Z,17.47
2022-12-06T06:21:47.213Z,16.50
2022-12-06T06:24:14.307Z,19.20
2022-12-06T06:26:41.543Z,21.07
2022-12-06T06:29:08.760Z,19.47
2022-12-06T06:31:35.961Z,18.87
2022-12-06T06:34:03.789Z,16.80
2022-12-06T06:36:30.783Z,19.27
2022-12-06T06:38:59.054Z,19.90
2022-12-06T06:41:26.190Z,21.87
2022-12-06T06:43:53.302Z,18.23
2022-12-06T06:46:20.343Z,18.40
2022-12-06T06:48:48.170Z,18.33
2022-12-06T06:51:15.174Z,21.53
2022-12-06T06:53:42.228Z,19.37
2022-12-06T06:56:09.709Z,18.17
2022-12-06T06:58:36.917Z,20.40
2022-12-06T07:01:05.897Z,16.90
2022-12-06T07:03:33.861Z,17.37
2022-12-06T07:06:10.803Z,17.47
2022-12-06T07:08:39.713Z,16.40
2022-12-06T07:11:07.587Z,15.10
2022-12-06T07:13:36.037Z,16.63
2022-12-06T07:16:04.620Z,19.13
2022-12-06T07:18:31.680Z,18.37
2022-12-06T07:21:04.487Z,16.93
2022-12-06T07:23:33.402Z,18.00
2022-12-06T07:26:06.306Z,18.33
2022-12-06T07:28:39.455Z,18.08
2022-12-06T07:31:18.209Z,15.77
2022-12-06T07:33:46.303Z,14.80
2022-12-06T07:36:14.850Z,14.00
2022-12-06T07:38:43.572Z,14.80
2022-12-06T07:41:31.580Z,16.53
2022-12-06T07:44:18.435Z,14.57
2022-12-06T07:46:46.024Z,18.17
2022-12-06T07:49:15.812Z,15.07
2022-12-06T07:51:43.867Z,17.30
2022-12-06T07:54:11.211Z,16.17
2022-12-06T07:56:38.336Z,15.10
2022-12-06T07:59:05.676Z,17.97
2022-12-06T08:01:33.271Z,14.10
2022-12-06T08:04:01.922Z,16.37
2022-12-06T08:06:30.864Z,15.80
2022-12-06T08:08:59.038Z,15.30
2022-12-06T08:11:26.191Z,15.60
2022-12-06T08:13:53.167Z,15.70
2022-12-06T08:16:20.617Z,16.87
2022-12-06T08:18:47.801Z,16.70
2022-12-06T08:21:16.626Z,16.37
2022-12-06T08:23:43.724Z,16.33
2022-12-06T08:26:15.648Z,14.97
2022-12-06T08:28:46.045Z,16.57
2022-12-06T08:31:16.911Z,15.90
2022-12-06T08:33:44.619Z,17.63
2022-12-06T08:36:14.353Z,15.17
2022-12-06T08:38:41.584Z,15.57
2022-12-06T08:41:28.758Z,15.80
2022-12-06T08:43:56.837Z,16.30
2022-12-06T08:46:24.355Z,17.47
2022-12-06T08:48:51.864Z,15.87
2022-12-06T08:51:18.957Z,16.60
2022-12-06T08:53:46.020Z,15.60
2022-12-06T08:56:13.128Z,15.70
2022-12-06T08:58:40.205Z,16.57
2022-12-06T09:01:16.110Z,16.03
2022-12-06T09:03:43.298Z,15.87
2022-12-06T09:06:11.218Z,14.87
2022-12-06T09:08:38.625Z,15.27
2022-12-06T09:11:07.013Z,14.40
2022-12-06T09:13:37.978Z,14.03
2022-12-06T09:16:10.851Z,14.27
2022-12-06T09:18:38.085Z,15.70
2022-12-06T09:21:06.730Z,15.33
2022-12-06T09:23:35.321Z,14.80
2022-12-06T09:26:03.634Z,15.07
2022-12-06T09:28:31.782Z,16.43
2022-12-06T09:30:58.971Z,14.70
2022-12-06T09:33:26.875Z,16.00
2022-12-06T09:35:54.105Z,17.20
2022-12-06T09:38:24.393Z,15.03
2022-12-06T09:42:05.021Z,16.37
2022-12-06T09:45:01.389Z,15.50
2022-12-06T09:47:56.978Z,14.10
2022-12-06T09:50:50.244Z,15.37
2022-12-06T09:53:26.387Z,13.47
2022-12-06T09:56:40.203Z,14.53
2022-12-06T09:59:29.840Z,13.90
2022-12-06T10:03:04.728Z,17.50
2022-12-06T10:06:01.889Z,19.73
2022-12-06T10:09:12.208Z,19.83
2022-12-06T10:12:16.094Z,18.90
2022-12-06T10:15:27.099Z,15.10
2022-12-06T10:18:21.884Z,13.77
2022-12-06T10:21:22.039Z,18.87
2022-12-06T10:24:31.877Z,22.10
2022-12-06T10:27:23.821Z,21.70
2022-12-06T10:30:02.008Z,18.70
2022-12-06T10:41:34.478Z,17.63
2022-12-06T10:44:26.149Z,19.27
2022-12-06T10:47:06.865Z,16.77
2022-12-06T10:53:12.827Z,16.80
2022-12-06T10:55:55.543Z,16.07
2022-12-06T11:01:49.904Z,15.33
2022-12-06T11:04:25.211Z,14.97
2022-12-06T11:07:15.887Z,17.10
2022-12-06T11:09:52.029Z,15.83
2022-12-06T11:12:38.754Z,15.10
2022-12-06T11:15:36.494Z,14.53
2022-12-06T11:18:13.306Z,15.50
2022-12-06T11:20:48.257Z,15.77
2022-12-06T11:23:47.920Z,16.03
2022-12-06T11:26:57.450Z,14.07
2022-12-06T11:29:24.519Z,17.03
2022-12-06T11:31:55.012Z,14.67
2022-12-06T11:35:01.526Z,15.13
2022-12-06T11:37:33.971Z,15.33
2022-12-06T11:40:29.485Z,16.23
2022-12-06T11:43:00.891Z,16.03
2022-12-06T11:45:34.813Z,14.60
2022-12-06T11:48:11.536Z,15.30
2022-12-06T11:50:38.772Z,13.87
2022-12-06T11:53:15.586Z,14.07
2022-12-06T11:55:45.825Z,15.00
2022-12-06T11:58:59.236Z,15.30
2022-12-06T12:01:44.134Z,13.63
2022-12-06T12:04:35.817Z,13.80
2022-12-06T12:07:29.399Z,13.93
2022-12-06T12:10:01.882Z,13.60
2022-12-06T12:13:01.522Z,15.37
2022-12-06T12:15:28.834Z,17.23
2022-12-06T12:17:58.605Z,15.20
2022-12-06T12:20:30.351Z,15.13
2022-12-06T12:23:03.844Z,15.87
2022-12-06T12:25:36.617Z,15.57
2022-12-06T12:28:26.779Z,16.43
2022-12-06T12:30:56.267Z,16.90
2022-12-06T12:33:25.846Z,19.37
2022-12-06T12:36:09.928Z,17.73
2022-12-06T12:38:56.010Z,17.27
2022-12-06T12:41:31.662Z,16.07
2022-12-06T12:44:36.473Z,17.73
2022-12-06T12:47:20.980Z,17.77
2022-12-06T12:50:23.924Z,17.30
2022-12-06T12:52:51.931Z,20.50
2022-12-06T12:55:25.408Z,17.77
2022-12-06T12:57:58.498Z,18.20
2022-12-06T13:00:37.377Z,19.47
2022-12-06T13:03:34.894Z,17.97
2022-12-06T13:05:59.750Z,18.03
2022-12-06T13:08:33.863Z,18.73
2022-12-06T13:11:03.369Z,38.37
2022-12-06T13:13:43.059Z,16.53
2022-12-06T13:16:14.996Z,17.60
2022-12-06T13:18:54.182Z,17.77
2022-12-06T13:21:24.328Z,18.03
2022-12-06T13:23:57.146Z,18.50
2022-12-06T13:26:28.784Z,17.07
2022-12-06T13:29:11.391Z,17.83
2022-12-06T13:31:41.079Z,17.17
2022-12-06T13:34:41.983Z,17.23
2022-12-06T13:37:36.841Z,18.40
2022-12-06T13:40:05.825Z,17.23
2022-12-06T13:42:45.625Z,17.60
2022-12-06T13:45:40.544Z,17.80
2022-12-06T13:49:12.395Z,16.37
2022-12-06T13:51:43.854Z,19.47
2022-12-06T13:54:31.826Z,18.43
2022-12-06T13:57:02.345Z,16.20
2022-12-06T13:59:35.237Z,16.10
2022-12-06T14:02:02.504Z,17.50
2022-12-06T14:09:49.990Z,14.97
2022-12-06T14:12:28.569Z,15.67
2022-12-06T14:15:00.746Z,15.50
2022-12-06T14:20:33.506Z,15.67
2022-12-06T14:23:00.587Z,15.70
2022-12-06T14:25:29.861Z,15.47
2022-12-06T14:28:06.253Z,15.00
2022-12-06T14:30:33.642Z,14.97
2022-12-06T14:33:00.801Z,16.37
2022-12-06T14:35:35.352Z,16.80
2022-12-06T14:38:19.802Z,16.17
2022-12-06T14:41:05.841Z,17.17
2022-12-06T14:43:34.725Z,15.33
2022-12-06T14:46:07.745Z,16.43
2022-12-06T14:48:54.229Z,16.20
2022-12-06T14:51:33.924Z,14.93
2022-12-06T14:54:31.347Z,15.33
2022-12-06T14:56:58.509Z,16.30
2022-12-06T15:00:10.832Z,15.47
2022-12-06T15:02:28.347Z,17.33
2022-12-06T15:04:55.874Z,16.27
2022-12-06T15:07:43.149Z,16.93
2022-12-06T15:10:29.913Z,17.67
2022-12-06T15:13:14.477Z,16.27
2022-12-06T15:15:45.237Z,17.67
2022-12-06T15:18:23.989Z,16.37
2022-12-06T15:20:53.547Z,16.93
2022-12-06T15:23:41.102Z,17.27
2022-12-06T15:26:12.096Z,16.93
2022-12-06T15:28:39.483Z,17.27
2022-12-06T15:31:14.228Z,17.70
2022-12-06T15:33:41.394Z,17.70
2022-12-06T15:36:14.145Z,17.63
2022-12-06T15:38:41.421Z,16.40
2022-12-06T15:41:23.796Z,17.07
2022-12-06T15:43:52.063Z,18.83
2022-12-06T15:46:28.167Z,17.83
2022-12-06T15:48:56.071Z,17.20
2022-12-06T15:51:26.716Z,17.43
2022-12-06T15:53:56.177Z,17.80
2022-12-06T15:56:27.897Z,16.80
2022-12-06T15:58:54.954Z,17.80
2022-12-06T16:01:33.302Z,20.48
2022-12-06T16:04:00.851Z,18.43
2022-12-06T16:06:32.448Z,18.63
2022-12-06T16:08:59.514Z,18.47
2022-12-06T16:11:27.343Z,16.63
2022-12-06T16:13:54.473Z,17.43
2022-12-06T16:16:22.963Z,17.57
2022-12-06T16:18:50.748Z,18.10
2022-12-06T16:21:31.119Z,18.37
2022-12-06T16:24:12.992Z,17.37
2022-12-06T16:26:44.279Z,18.97
2022-12-06T16:29:29.513Z,17.90
2022-12-06T16:31:56.907Z,18.87
2022-12-06T16:34:25.079Z,20.97
2022-12-06T16:37:10.998Z,19.83
2022-12-06T16:39:38.061Z,22.37
2022-12-06T16:42:05.610Z,24.93
2022-12-06T16:44:34.152Z,23.40
2022-12-06T16:47:01.266Z,21.87
2022-12-06T16:49:46.451Z,20.10
2022-12-06T16:52:15.826Z,22.33
2022-12-06T16:54:43.068Z,23.47
2022-12-06T16:57:13.895Z,23.70
2022-12-06T16:59:42.814Z,23.63
2022-12-06T17:02:31.208Z,23.33
2022-12-06T17:05:01.381Z,23.10
2022-12-06T17:07:29.309Z,24.13
2022-12-06T17:09:56.737Z,25.83
2022-12-06T17:12:24.290Z,28.00
2022-12-06T17:14:51.501Z,25.97
2022-12-06T17:17:21.584Z,25.77
2022-12-06T17:19:49.512Z,28.60
2022-12-06T17:22:17.376Z,27.10
2022-12-06T17:24:45.030Z,28.57
2022-12-06T17:27:15.081Z,29.40
2022-12-06T17:29:43.652Z,27.30
2022-12-06T17:32:11.922Z,28.83
2022-12-06T17:34:39.134Z,27.63
2022-12-06T17:37:06.347Z,27.80
2022-12-06T17:39:33.834Z,27.97
2022-12-06T17:42:19.726Z,30.37
2022-12-06T17:44:46.877Z,28.83
2022-12-06T17:47:13.944Z,29.73
2022-12-06T17:49:41.050Z,28.83
2022-12-06T17:52:08.132Z,29.47
2022-12-06T17:54:35.273Z,30.57
2022-12-06T17:57:02.339Z,30.27
2022-12-06T17:59:32.101Z,32.03
2022-12-06T18:02:17.256Z,31.70
2022-12-06T18:04:45.936Z,33.97
2022-12-06T18:07:14.072Z,33.63
2022-12-06T18:09:41.349Z,33.30
2022-12-06T18:12:09.911Z,31.77
2022-12-06T18:14:37.159Z,31.37
2022-12-06T18:17:04.533Z,31.67
2022-12-06T18:19:32.374Z,32.70
2022-12-06T18:21:59.525Z,31.90
2022-12-06T18:24:31.993Z,29.70
2022-12-06T18:27:01.131Z,31.80
2022-12-06T18:29:28.192Z,30.00
2022-12-06T18:31:55.362Z,28.20
2022-12-06T18:34:22.579Z,30.43
2022-12-06T18:36:49.753Z,29.17
2022-12-06T18:39:24.459Z,31.23
2022-12-06T18:41:53.288Z,30.57
2022-12-06T18:44:20.591Z,31.27
2022-12-06T18:46:47.971Z,30.07
2022-12-06T18:49:15.450Z,32.50
2022-12-06T18:51:42.812Z,33.83
2022-12-06T18:54:11.399Z,32.77
2022-12-06T18:56:38.520Z,34.30
2022-12-06T18:59:07.340Z,29.93
2022-12-06T19:01:36.995Z,26.87
2022-12-06T19:04:06.115Z,24.87
2022-12-06T19:06:35.619Z,26.27
2022-12-06T19:09:09.562Z,25.87
2022-12-06T19:11:42.008Z,28.20
2022-12-06T19:14:10.198Z,27.60
2022-12-06T19:16:43.386Z,26.63
2022-12-06T19:19:16.860Z,27.13
2022-12-06T19:21:46.186Z,24.70
2022-12-06T19:24:16.139Z,25.23
2022-12-06T19:26:43.460Z,26.30
2022-12-06T19:29:10.609Z,26.87
2022-12-06T19:31:37.832Z,26.90
2022-12-06T19:34:05.025Z,26.17
2022-12-06T19:36:32.761Z,26.47
2022-12-06T19:39:03.170Z,27.17
2022-12-06T19:41:30.971Z,27.40
2022-12-06T19:44:17.135Z,27.93
2022-12-06T19:46:45.996Z,29.30
2022-12-06T19:49:14.811Z,31.60
2022-12-06T19:51:44.136Z,30.03
2022-12-06T19:54:14.750Z,29.13
2022-12-06T19:56:42.035Z,28.70
2022-12-06T19:59:12.052Z,28.93
2022-12-06T20:01:45.004Z,30.53
2022-12-06T20:04:23.334Z,28.53
2022-12-06T20:06:51.653Z,27.10
2022-12-06T20:09:20.659Z,25.80
2022-12-06T20:12:04.103Z,26.53
2022-12-06T20:14:40.347Z,24.83
2022-12-06T20:17:10.958Z,27.63
2022-12-06T20:19:38.812Z,25.27
2022-12-06T20:22:06.030Z,26.90
2022-12-06T20:24:33.124Z,27.27
2022-12-06T20:27:00.356Z,25.67
2022-12-06T20:29:27.676Z,27.00
2022-12-06T20:31:58.068Z,26.17
2022-12-06T20:34:26.078Z,26.50
2022-12-06T20:36:53.208Z,25.57
2022-12-06T20:39:22.913Z,25.30
2022-12-06T20:41:50.885Z,24.67
2022-12-06T20:44:18.542Z,23.97
2022-12-06T20:46:45.907Z,24.93
2022-12-06T20:49:13.311Z,26.47
2022-12-06T20:51:40.519Z,24.23
2022-12-06T20:54:07.965Z,23.93
2022-12-06T20:56:38.642Z,23.73
2022-12-06T20:59:08.023Z,22.20
2022-12-06T21:01:39.195Z,24.13
2022-12-06T21:04:06.668Z,24.37
2022-12-06T21:06:33.733Z,23.70
2022-12-06T21:09:01.112Z,24.37
2022-12-06T21:11:28.257Z,23.40
2022-12-06T21:13:57.307Z,25.77
2022-12-06T21:16:26.956Z,23.53
2022-12-06T21:18:59.464Z,23.83
2022-12-06T21:21:29.720Z,24.17
2022-12-06T21:24:00.223Z,21.80
2022-12-06T21:26:28.424Z,23.03
2022-12-06T21:28:55.845Z,25.20
2022-12-06T21:31:28.073Z,24.07
2022-12-06T21:33:56.233Z,23.43
2022-12-06T21:36:24.143Z,23.67
2022-12-06T21:38:51.417Z,24.13
2022-12-06T21:41:18.723Z,22.87
2022-12-06T21:43:46.021Z,23.13
2022-12-06T21:46:15.777Z,22.73
2022-12-06T21:48:43.236Z,21.73
2022-12-06T21:51:14.067Z,23.87
2022-12-06T21:53:41.277Z,21.87
2022-12-06T21:56:10.055Z,24.13
2022-12-06T21:58:37.186Z,23.07
2022-12-06T22:01:10.332Z,23.40
2022-12-06T22:03:38.224Z,23.53
2022-12-06T22:06:07.141Z,23.70
2022-12-06T22:08:34.348Z,22.43
2022-12-06T22:11:05.832Z,23.20
2022-12-06T22:13:32.970Z,22.50
2022-12-06T22:16:08.686Z,24.57
2022-12-06T22:18:41.163Z,22.67
2022-12-06T22:21:15.193Z,21.37
2022-12-06T22:23:42.704Z,23.13
2022-12-06T22:26:13.318Z,21.87
2022-12-06T22:28:40.390Z,25.10
2022-12-06T22:31:13.148Z,23.97
2022-12-06T22:33:40.915Z,24.90
2022-12-06T22:36:09.007Z,26.77
2022-12-06T22:38:36.425Z,27.73
2022-12-06T22:41:04.406Z,25.40
2022-12-06T22:43:31.777Z,24.50
2022-12-06T22:46:14.216Z,25.30
2022-12-06T22:48:42.700Z,27.97
2022-12-06T22:51:21.249Z,27.03
2022-12-06T22:53:53.843Z,28.93
2022-12-06T22:56:21.041Z,28.40
2022-12-06T22:58:48.313Z,30.20
2022-12-06T23:01:17.896Z,30.70
2022-12-06T23:03:46.682Z,30.03
2022-12-06T23:06:15.925Z,28.43
2022-12-06T23:08:43.491Z,30.40
2022-12-06T23:11:19.760Z,29.97
2022-12-06T23:13:47.950Z,29.10
2022-12-06T23:16:17.721Z,29.30
2022-12-06T23:18:45.686Z,31.03
2022-12-06T23:21:18.246Z,30.53
2022-12-06T23:23:50.843Z,33.53
2022-12-06T23:26:20.632Z,32.13
2022-12-06T23:28:48.151Z,34.30
2022-12-06T23:31:18.780Z,33.30
2022-12-06T23:33:46.367Z,34.07
2022-12-06T23:36:22.528Z,33.53
2022-12-06T23:38:49.676Z,32.77
2022-12-06T23:41:19.424Z,32.20
2022-12-06T23:43:46.909Z,33.27
2022-12-06T23:46:20.607Z,33.97
2022-12-06T23:48:52.855Z,31.63
2022-12-06T23:51:22.549Z,33.03
2022-12-06T23:53:55.038Z,30.07
2022-12-06T23:56:22.611Z,30.53
2022-12-06T23:58:50.787Z,33.17
